Muldrow, Mississippi
Current Conditions -  °F | °C
As of 9:55 PM on Friday 28 Nov 2014 (Local Time) from KSTF Reporting Station
Clear Clear  
Wind Chill: 35°   Ceiling: Unl
Heat Index: 39°   Visibility: NA
Dew Point: 30°   Wind: 6mph
Humidity: 70%   Direction: 160°SSE
Pressure: 30.22"   Gusts: NA
Location:  33.4256°N, 88.8438°W
Report Text: KSTF 290355Z AUTO 16005KT CLR 04/M01 A3022 RMK AO2 PWINO
Loading
Personal Weather Stations






























Interactive Weather Map New forecast layout! Learn more

10-Day Weather Forecast

Advertisements
Track Severe Weather on mobile